createdAt,value
2019-05-23T00:00:57.548Z,101651.13
2019-05-23T00:03:34.313Z,101648.95
2019-05-23T00:06:17.827Z,101649.80
2019-05-23T00:08:47.360Z,101644.25
2019-05-23T00:11:40.142Z,101643.70
2019-05-23T00:14:12.565Z,101648.21
2019-05-23T00:16:46.298Z,101646.75
2019-05-23T00:19:14.896Z,101642.31
2019-05-23T00:21:43.954Z,101636.56
2019-05-23T00:24:13.111Z,101635.47
2019-05-23T00:26:42.702Z,101640.17
2019-05-23T00:29:12.565Z,101637.30
2019-05-23T00:31:49.355Z,101637.41
2019-05-23T00:34:21.838Z,101639.09
2019-05-23T00:36:51.216Z,101643.20
2019-05-23T00:39:20.072Z,101638.87
2019-05-23T00:41:52.265Z,101643.70
2019-05-23T00:44:25.278Z,101639.97
2019-05-23T00:46:54.678Z,101636.39
2019-05-23T00:49:24.675Z,101633.33
2019-05-23T00:51:57.185Z,101632.88
2019-05-23T00:54:25.211Z,101633.61
2019-05-23T00:56:54.835Z,101625.77
2019-05-23T00:59:27.274Z,101636.26
2019-05-23T01:01:53.684Z,101636.72
2019-05-23T01:04:28.577Z,101641.43
2019-05-23T01:06:58.876Z,101633.29
2019-05-23T01:09:30.394Z,101638.22
2019-05-23T01:12:03.037Z,101638.22
2019-05-23T01:14:33.438Z,101638.72
2019-05-23T01:17:02.312Z,101633.78
2019-05-23T01:19:30.798Z,101625.97
2019-05-23T01:22:04.700Z,101634.98
2019-05-23T01:24:39.845Z,101637.98
2019-05-23T01:27:08.955Z,101633.55
2019-05-23T01:29:40.001Z,101633.41
2019-05-23T01:32:16.965Z,101629.20
2019-05-23T01:34:49.362Z,101622.36
2019-05-23T01:37:18.128Z,101625.73
2019-05-23T01:39:46.570Z,101627.05
2019-05-23T01:42:19.506Z,101621.05
2019-05-23T01:44:50.614Z,101620.56
2019-05-23T01:47:20.194Z,101618.98
2019-05-23T01:49:53.858Z,101614.78
2019-05-23T01:52:22.307Z,101617.77
2019-05-23T01:54:50.924Z,101615.12
2019-05-23T01:57:19.784Z,101615.84
2019-05-23T01:59:48.388Z,101614.25
2019-05-23T02:02:18.627Z,101619.19
2019-05-23T02:04:50.787Z,101614.62
2019-05-23T02:07:20.757Z,101616.03
2019-05-23T02:09:50.380Z,101616.13
2019-05-23T02:12:21.903Z,101618.31
2019-05-23T02:14:50.500Z,101618.53
2019-05-23T02:17:19.331Z,101619.26
2019-05-23T02:19:48.016Z,101616.11
2019-05-23T02:22:18.276Z,101611.17
2019-05-23T02:24:49.567Z,101617.89
2019-05-23T02:27:18.842Z,101609.47
2019-05-23T02:29:47.345Z,101603.59
2019-05-23T02:32:16.517Z,101610.31
2019-05-23T02:34:47.824Z,101614.42
2019-05-23T02:37:20.687Z,101604.42
2019-05-23T02:39:57.645Z,101600.94
2019-05-23T02:42:34.597Z,101605.97
2019-05-23T02:45:06.998Z,101603.22
2019-05-23T02:47:44.382Z,101606.93
2019-05-23T02:50:25.406Z,101597.66
2019-05-23T02:52:59.098Z,101601.54
2019-05-23T02:55:32.233Z,101600.45
2019-05-23T02:58:18.497Z,101599.39
2019-05-23T03:00:56.288Z,101597.13
2019-05-23T03:03:29.425Z,101603.52
2019-05-23T03:05:59.551Z,101597.73
2019-05-23T03:08:29.550Z,101598.81
2019-05-23T03:11:05.173Z,101600.14
2019-05-23T03:13:33.781Z,101597.86
2019-05-23T03:16:07.159Z,101598.95
2019-05-23T03:18:42.205Z,101598.45
2019-05-23T03:21:12.619Z,101597.03
2019-05-23T03:23:44.922Z,101599.45
2019-05-23T03:26:34.344Z,101601.70
2019-05-23T03:29:04.747Z,101590.28
2019-05-23T03:31:36.319Z,101593.66
2019-05-23T03:34:11.571Z,101591.83
2019-05-23T03:36:40.790Z,101586.66
2019-05-23T03:39:11.218Z,101589.31
2019-05-23T03:41:40.520Z,101590.86
2019-05-23T03:44:16.248Z,101592.78
2019-05-23T03:46:50.197Z,101587.12
2019-05-23T03:49:19.398Z,101587.12
2019-05-23T03:51:58.799Z,101593.88
2019-05-23T03:54:29.857Z,101594.09
2019-05-23T03:56:59.542Z,101589.39
2019-05-23T03:59:30.561Z,101592.57
2019-05-23T04:02:01.735Z,101583.40
2019-05-23T04:04:39.266Z,101583.63
2019-05-23T04:07:11.771Z,101585.23
2019-05-23T04:09:39.637Z,101580.94
2019-05-23T04:12:16.690Z,101580.77
2019-05-23T04:14:47.808Z,101576.46
2019-05-23T04:17:32.488Z,101582.71
2019-05-23T04:20:05.408Z,101582.82
2019-05-23T04:24:40.080Z,101582.38
2019-05-23T04:25:38.343Z,101589.55
2019-05-23T04:28:20.854Z,101584.42
2019-05-23T04:31:02.805Z,101590.88
2019-05-23T04:34:02.751Z,101594.59
2019-05-23T04:36:21.746Z,101599.30
2019-05-23T04:39:22.682Z,101594.30
2019-05-23T04:41:40.850Z,101601.00
2019-05-23T04:44:10.750Z,101595.42
2019-05-23T04:47:16.226Z,101599.83
2019-05-23T04:49:27.265Z,101602.08
2019-05-23T04:52:04.959Z,101600.24
2019-05-23T04:54:39.909Z,101600.89
2019-05-23T04:57:14.397Z,101598.44
2019-05-23T04:59:49.610Z,101602.22
2019-05-23T05:02:27.327Z,101599.64
2019-05-23T05:05:03.504Z,101603.17
2019-05-23T05:07:38.582Z,101605.02
2019-05-23T05:10:12.586Z,101601.06
2019-05-23T05:12:43.011Z,101605.75
2019-05-23T05:15:13.727Z,101613.66
2019-05-23T05:17:45.660Z,101612.41
2019-05-23T05:20:17.695Z,101612.41
2019-05-23T05:22:55.918Z,101616.97
2019-05-23T05:25:24.989Z,101610.77
2019-05-23T05:27:53.417Z,101620.31
2019-05-23T05:30:26.078Z,101621.61
2019-05-23T05:32:57.513Z,101627.29
2019-05-23T05:35:30.142Z,101627.31
2019-05-23T05:37:59.692Z,101633.91
2019-05-23T05:40:30.679Z,101629.20
2019-05-23T05:42:59.687Z,101634.11
2019-05-23T05:45:29.340Z,101631.43
2019-05-23T05:48:02.685Z,101635.47
2019-05-23T05:50:35.743Z,101636.01
2019-05-23T05:53:07.933Z,101635.34
2019-05-23T05:55:36.465Z,101640.02
2019-05-23T05:58:05.329Z,101643.57
2019-05-23T06:00:35.422Z,101639.80
2019-05-23T06:03:05.767Z,101636.38
2019-05-23T06:05:56.169Z,101641.67
2019-05-23T06:08:26.242Z,101638.47
2019-05-23T06:10:54.863Z,101648.94
2019-05-23T06:13:23.556Z,101641.31
2019-05-23T06:15:53.043Z,101644.33
2019-05-23T06:18:21.720Z,101652.27
2019-05-23T06:20:50.390Z,101640.66
2019-05-23T06:23:20.084Z,101653.67
2019-05-23T06:25:48.635Z,101646.41
2019-05-23T06:28:19.569Z,101648.83
2019-05-23T06:30:49.637Z,101644.82
2019-05-23T06:33:23.249Z,101642.59
2019-05-23T06:35:49.119Z,101643.44
2019-05-23T06:38:17.595Z,101644.82
2019-05-23T06:40:46.589Z,101637.41
2019-05-23T06:43:15.486Z,101639.70
2019-05-23T06:45:44.784Z,101635.17
2019-05-23T06:48:18.133Z,101642.66
2019-05-23T06:50:47.701Z,101635.24
2019-05-23T06:53:16.283Z,101636.87
2019-05-23T06:55:49.326Z,101642.64
2019-05-23T06:58:18.040Z,101649.03
2019-05-23T07:00:49.426Z,101644.67
2019-05-23T07:03:18.604Z,101654.49
2019-05-23T07:05:47.188Z,101654.18
2019-05-23T07:08:15.661Z,101648.44
2019-05-23T07:10:44.822Z,101653.92
2019-05-23T07:13:18.817Z,101652.09
2019-05-23T07:15:47.280Z,101649.87
2019-05-23T07:18:15.719Z,101649.28
2019-05-23T07:20:44.782Z,101648.11
2019-05-23T07:23:18.145Z,101651.13
2019-05-23T07:25:49.195Z,101650.00
2019-05-23T07:28:16.973Z,101645.94
2019-05-23T07:30:46.087Z,101642.55
2019-05-23T07:33:17.767Z,101639.56
2019-05-23T07:35:45.460Z,101654.36
2019-05-23T07:38:19.156Z,101646.09
2019-05-23T07:40:48.725Z,101647.08
2019-05-23T07:43:17.583Z,101645.56
2019-05-23T07:46:00.241Z,101653.41
2019-05-23T07:48:29.270Z,101651.13
2019-05-23T07:50:58.149Z,101643.23
2019-05-23T07:53:28.270Z,101643.64
2019-05-23T07:56:03.564Z,101637.86
2019-05-23T07:58:31.469Z,101636.89
2019-05-23T08:01:07.354Z,101638.48
2019-05-23T08:03:39.720Z,101641.84
2019-05-23T08:06:08.891Z,101638.67
2019-05-23T08:08:37.452Z,101641.70
2019-05-23T08:11:13.942Z,101638.78
2019-05-23T08:13:42.934Z,101636.12
2019-05-23T08:16:11.416Z,101639.94
2019-05-23T08:18:39.989Z,101630.36
2019-05-23T08:21:08.392Z,101629.25
2019-05-23T08:23:36.851Z,101635.10
2019-05-23T08:26:05.322Z,101630.35
2019-05-23T08:28:33.920Z,101625.91
2019-05-23T08:31:02.895Z,101629.52
2019-05-23T08:33:31.506Z,101633.14
2019-05-23T08:36:00.094Z,101632.48
2019-05-23T08:38:29.293Z,101637.72
2019-05-23T08:40:58.753Z,101632.66
2019-05-23T08:43:27.176Z,101629.26
2019-05-23T08:45:55.916Z,101629.54
2019-05-23T08:48:24.910Z,101632.91
2019-05-23T08:50:53.502Z,101632.55
2019-05-23T08:53:22.173Z,101627.75
2019-05-23T08:55:51.700Z,101637.26
2019-05-23T08:58:20.607Z,101630.32
2019-05-23T09:00:49.631Z,101632.95
2019-05-23T09:03:19.140Z,101633.80
2019-05-23T09:05:54.463Z,101628.86
2019-05-23T09:08:24.433Z,101630.55
2019-05-23T09:10:52.843Z,101646.55
2019-05-23T09:13:26.321Z,101634.80
2019-05-23T09:15:57.773Z,101634.06
2019-05-23T09:18:26.413Z,101629.84
2019-05-23T09:20:55.286Z,101623.77
2019-05-23T09:23:23.781Z,101621.50
2019-05-23T09:25:52.239Z,101621.00
2019-05-23T09:28:20.810Z,101619.39
2019-05-23T09:30:53.239Z,101611.75
2019-05-23T09:33:21.736Z,101616.37
2019-05-23T09:35:50.356Z,101608.87
2019-05-23T09:38:19.455Z,101617.10
2019-05-23T09:40:47.854Z,101615.56
2019-05-23T09:43:16.412Z,101609.65
2019-05-23T09:45:44.807Z,101617.83
2019-05-23T09:48:13.270Z,101612.05
2019-05-23T09:50:42.887Z,101613.81
2019-05-23T09:53:11.297Z,101607.91
2019-05-23T09:55:39.784Z,101614.13
2019-05-23T09:58:08.632Z,101610.78
2019-05-23T10:00:42.923Z,101605.81
2019-05-23T10:03:11.322Z,101605.61
2019-05-23T10:05:43.275Z,101610.29
2019-05-23T10:08:10.035Z,101605.19
2019-05-23T10:10:38.470Z,101604.45
2019-05-23T10:13:07.053Z,101602.19
2019-05-23T10:15:39.835Z,101599.66
2019-05-23T10:18:10.107Z,101602.63
2019-05-23T10:20:39.894Z,101594.58
2019-05-23T10:23:10.142Z,101596.34
2019-05-23T10:25:38.459Z,101594.62
2019-05-23T10:28:07.329Z,101592.45
2019-05-23T10:30:38.426Z,101595.25
2019-05-23T10:33:12.309Z,101586.49
2019-05-23T10:35:37.617Z,101581.32
2019-05-23T10:38:06.267Z,101578.95
2019-05-23T10:40:37.772Z,101579.17
2019-05-23T10:43:09.126Z,101577.09
2019-05-23T10:45:38.499Z,101573.25
2019-05-23T10:48:08.944Z,101569.86
2019-05-23T10:50:44.923Z,101573.09
2019-05-23T10:53:09.010Z,101575.63
2019-05-23T10:55:37.448Z,101574.51
2019-05-23T10:58:10.946Z,101571.17
2019-05-23T11:00:43.092Z,101564.10
2019-05-23T11:03:13.063Z,101557.37
2019-05-23T11:05:44.449Z,101560.58
2019-05-23T11:08:12.942Z,101559.61
2019-05-23T11:10:42.396Z,101563.22
2019-05-23T11:13:10.984Z,101559.22
2019-05-23T11:15:39.472Z,101555.88
2019-05-23T11:18:10.060Z,101556.04
2019-05-23T11:20:38.798Z,101560.10
2019-05-23T11:23:07.858Z,101561.27
2019-05-23T11:25:39.595Z,101553.38
2019-05-23T11:28:10.826Z,101549.33
2019-05-23T11:30:50.153Z,101547.64
2019-05-23T11:33:19.104Z,101550.66
2019-05-23T11:35:50.229Z,101545.48
2019-05-23T11:38:18.850Z,101548.14
2019-05-23T11:40:47.635Z,101544.55
2019-05-23T11:43:16.249Z,101545.97
2019-05-23T11:45:49.189Z,101541.08
2019-05-23T11:48:18.530Z,101540.38
2019-05-23T11:50:55.097Z,101538.33
2019-05-23T11:53:23.668Z,101532.83
2019-05-23T11:55:54.409Z,101532.42
2019-05-23T11:58:22.597Z,101527.20
2019-05-23T12:00:55.802Z,101532.61
2019-05-23T12:03:26.802Z,101528.50
2019-05-23T12:05:55.388Z,101528.50
2019-05-23T12:08:23.929Z,101522.64
2019-05-23T12:48:27.875Z,101495.84
2019-05-23T12:51:06.206Z,101494.87
2019-05-23T12:53:34.653Z,101494.84
2019-05-23T12:56:05.170Z,101490.94
2019-05-23T12:58:34.001Z,101488.42
2019-05-23T13:01:07.806Z,101483.63
2019-05-23T13:03:36.803Z,101483.53
2019-05-23T13:06:05.533Z,101475.91
2019-05-23T13:08:34.125Z,101473.48
2019-05-23T13:11:02.603Z,101471.86
2019-05-23T13:13:31.021Z,101471.13
2019-05-23T13:15:59.421Z,101460.33
2019-05-23T13:18:28.101Z,101461.37
2019-05-23T13:20:59.572Z,101457.72
2019-05-23T13:23:27.753Z,101462.73
2019-05-23T13:25:56.220Z,101464.27
2019-05-23T13:28:24.899Z,101464.20
2019-05-23T13:30:53.495Z,101464.92
2019-05-23T13:33:22.167Z,101460.52
2019-05-23T13:35:51.240Z,101461.87
2019-05-23T13:38:20.192Z,101463.78
2019-05-23T13:40:48.608Z,101462.03
2019-05-23T13:43:17.366Z,101463.32
2019-05-23T13:45:53.234Z,101460.22
2019-05-23T13:48:21.653Z,101459.97
2019-05-23T13:50:50.253Z,101457.43
2019-05-23T13:53:22.710Z,101449.91
2019-05-23T13:55:51.558Z,101450.40
2019-05-23T13:58:20.424Z,101449.53
2019-05-23T14:00:52.857Z,101446.80
2019-05-23T14:03:21.430Z,101442.84
2019-05-23T14:05:50.280Z,101447.25
2019-05-23T14:08:19.512Z,101446.98
2019-05-23T14:13:15.553Z,101443.84
2019-05-23T14:15:45.804Z,101436.73
2019-05-23T14:18:15.897Z,101437.27
2019-05-23T14:20:44.316Z,101438.45
2019-05-23T14:23:23.879Z,101437.04
2019-05-23T14:25:52.777Z,101434.98
2019-05-23T14:28:21.549Z,101429.03
2019-05-23T14:30:54.073Z,101428.20
2019-05-23T14:33:26.545Z,101427.88
2019-05-23T14:36:01.282Z,101431.65
2019-05-23T14:38:35.492Z,101427.31
2019-05-23T14:41:07.856Z,101420.55
2019-05-23T14:43:37.576Z,101423.77
2019-05-23T14:46:10.036Z,101418.11
2019-05-23T14:48:43.390Z,101413.19
2019-05-23T14:51:30.081Z,101426.67
2019-05-23T14:54:04.137Z,101411.42
2019-05-23T14:56:34.198Z,101403.67
2019-05-23T14:59:03.061Z,101415.43
2019-05-23T15:01:33.117Z,101413.06
2019-05-23T15:04:02.551Z,101411.75
2019-05-23T15:06:31.669Z,101407.45
2019-05-23T15:09:04.889Z,101409.45
2019-05-23T15:11:33.428Z,101409.56
2019-05-23T15:14:04.903Z,101403.64
2019-05-23T15:16:33.664Z,101397.27
2019-05-23T15:19:02.276Z,101401.39
2019-05-23T15:21:30.858Z,101398.17
2019-05-23T15:23:59.253Z,101396.16
2019-05-23T15:26:27.946Z,101392.87
2019-05-23T15:28:58.954Z,101396.13
2019-05-23T15:31:28.636Z,101382.41
2019-05-23T15:33:58.976Z,101389.75
2019-05-23T15:36:27.691Z,101390.03
2019-05-23T15:39:08.831Z,101387.92
2019-05-23T15:41:28.711Z,101385.00
2019-05-23T15:43:59.157Z,101377.14
2019-05-23T15:46:28.891Z,101377.62
2019-05-23T15:49:06.769Z,101376.01
2019-05-23T15:51:40.781Z,101369.23
2019-05-23T15:54:10.901Z,101375.77
2019-05-23T15:56:45.144Z,101374.75
2019-05-23T15:59:30.514Z,101368.95
2019-05-23T16:02:17.232Z,101372.97
2019-05-23T16:04:52.121Z,101362.46
2019-05-23T16:07:21.379Z,101354.64
2019-05-23T16:09:49.816Z,101359.82
2019-05-23T16:12:18.541Z,101357.34
2019-05-23T16:14:54.773Z,101357.59
2019-05-23T16:17:23.373Z,101355.38
2019-05-23T16:19:53.952Z,101347.20
2019-05-23T16:22:22.517Z,101339.84
2019-05-23T16:24:51.186Z,101346.65
2019-05-23T16:27:27.839Z,101349.66
2019-05-23T16:29:54.963Z,101342.89
2019-05-23T16:32:23.402Z,101339.55
2019-05-23T16:34:51.822Z,101337.57
2019-05-23T16:37:20.233Z,101332.72
2019-05-23T16:39:52.098Z,101331.09
2019-05-23T16:42:20.583Z,101332.44
2019-05-23T16:44:52.861Z,101328.25
2019-05-23T16:47:25.393Z,101321.41
2019-05-23T16:49:55.106Z,101331.63
2019-05-23T16:52:24.086Z,101324.98
2019-05-23T16:54:54.336Z,101323.02
2019-05-23T16:57:24.566Z,101320.23
2019-05-23T17:00:00.068Z,101330.10
2019-05-23T17:02:30.149Z,101323.80
2019-05-23T17:05:10.032Z,101323.86
2019-05-23T17:07:41.078Z,101327.48
2019-05-23T17:10:20.516Z,101322.99
2019-05-23T17:12:53.026Z,101322.91
2019-05-23T17:15:29.058Z,101321.70
2019-05-23T17:18:15.174Z,101315.41
2019-05-23T17:20:48.367Z,101314.98
2019-05-23T17:23:21.444Z,101315.46
2019-05-23T17:26:00.868Z,101317.80
2019-05-23T17:28:37.498Z,101318.12
2019-05-23T17:31:14.561Z,101315.52
2019-05-23T17:33:45.527Z,101311.64
2019-05-23T17:36:13.902Z,101306.03
2019-05-23T17:38:42.466Z,101304.70
2019-05-23T17:41:11.137Z,101307.81
2019-05-23T17:43:40.616Z,101303.72
2019-05-23T17:46:09.022Z,101308.56
2019-05-23T17:48:37.468Z,101302.59
2019-05-23T17:51:05.882Z,101298.97
2019-05-23T17:53:34.456Z,101298.64
2019-05-23T17:56:03.290Z,101299.05
2019-05-23T17:58:35.159Z,101293.53
2019-05-23T18:01:05.292Z,101297.76
2019-05-23T18:03:34.068Z,101298.45
2019-05-23T18:06:02.562Z,101300.52
2019-05-23T18:08:36.803Z,101291.92
2019-05-23T18:11:06.164Z,101293.28
2019-05-23T18:13:35.675Z,101289.39
2019-05-23T18:16:10.010Z,101290.08
2019-05-23T18:18:38.417Z,101284.63
2019-05-23T18:21:07.296Z,101286.31
2019-05-23T18:23:37.744Z,101281.55
2019-05-23T18:26:07.790Z,101283.16
2019-05-23T18:28:36.823Z,101281.93
2019-05-23T18:31:16.377Z,100872.55
2019-05-23T18:33:45.586Z,101275.39
2019-05-23T18:36:14.282Z,101281.29
2019-05-23T18:38:42.856Z,101287.69
2019-05-23T18:41:12.111Z,101276.52
2019-05-23T18:43:41.909Z,101277.23
2019-05-23T18:46:12.767Z,101268.18
2019-05-23T18:48:41.460Z,101273.28
2019-05-23T18:51:11.171Z,101277.92
2019-05-23T18:53:39.680Z,101272.91
2019-05-23T18:56:08.323Z,101275.04
2019-05-23T18:58:38.950Z,101282.05
2019-05-23T19:01:14.853Z,101282.02
2019-05-23T19:03:44.683Z,101285.52
2019-05-23T19:06:14.448Z,101278.38
2019-05-23T19:08:45.592Z,101280.77
2019-05-23T19:11:20.795Z,101282.57
2019-05-23T19:13:56.706Z,101276.91
2019-05-23T19:16:29.280Z,101273.66
2019-05-23T19:18:58.339Z,101273.81
2019-05-23T19:21:28.787Z,101267.23
2019-05-23T19:23:58.383Z,101276.78
2019-05-23T19:26:29.305Z,101275.34
2019-05-23T19:28:58.846Z,101276.09
2019-05-23T19:31:29.865Z,101275.73
2019-05-23T19:33:58.567Z,101277.64
2019-05-23T19:36:29.641Z,101276.99
2019-05-23T19:38:58.101Z,101279.55
2019-05-23T19:41:37.277Z,101276.97
2019-05-23T19:44:01.156Z,101274.28
2019-05-23T19:46:30.728Z,101274.80
2019-05-23T19:49:02.043Z,101275.52
2019-05-23T19:51:31.931Z,101274.83
2019-05-23T19:54:00.440Z,101274.30
2019-05-23T19:56:29.296Z,101277.27
2019-05-23T19:59:03.318Z,101273.70
2019-05-23T20:01:34.420Z,101282.38
2019-05-23T20:04:03.570Z,101274.41
2019-05-23T20:06:32.010Z,101273.56
2019-05-23T20:09:04.989Z,101267.33
2019-05-23T20:11:33.654Z,101121.17
2019-05-23T20:14:03.198Z,101267.43
2019-05-23T20:16:34.267Z,101268.84
2019-05-23T20:19:06.369Z,101270.19
2019-05-23T20:21:35.129Z,101268.44
2019-05-23T20:24:05.986Z,101271.63
2019-05-23T20:26:38.125Z,101267.87
2019-05-23T20:29:09.164Z,101269.98
2019-05-23T20:31:42.838Z,101270.53
2019-05-23T20:34:11.743Z,101274.34
2019-05-23T20:36:41.229Z,101269.84
2019-05-23T20:39:09.826Z,101264.59
2019-05-23T20:41:38.706Z,101269.38
2019-05-23T20:44:07.304Z,101271.09
2019-05-23T20:46:35.995Z,101267.48
2019-05-23T20:49:04.472Z,101262.99
2019-05-23T20:51:33.232Z,101263.69
2019-05-23T20:54:03.033Z,101262.17
2019-05-23T20:56:32.788Z,101183.94
2019-05-23T20:59:01.536Z,101261.47
2019-05-23T21:01:36.986Z,101256.86
2019-05-23T21:04:09.581Z,101257.73
2019-05-23T21:06:47.816Z,101259.41
2019-05-23T21:09:17.880Z,101253.55
2019-05-23T21:11:51.413Z,101253.39
2019-05-23T21:14:21.349Z,101254.22
2019-05-23T21:16:49.750Z,101256.27
2019-05-23T21:19:18.166Z,101248.09
2019-05-23T21:21:46.639Z,101248.59
2019-05-23T21:24:15.123Z,101248.95
2019-05-23T21:26:45.935Z,101250.28
2019-05-23T21:29:13.674Z,101246.27
2019-05-23T21:31:42.193Z,101248.94
2019-05-23T21:34:12.400Z,101246.78
2019-05-23T21:36:40.814Z,101242.12
2019-05-23T21:39:11.438Z,101243.48
2019-05-23T21:41:40.217Z,101242.98
2019-05-23T21:44:08.609Z,101242.66
2019-05-23T21:46:37.018Z,101244.31
2019-05-23T21:49:05.591Z,101236.97
2019-05-23T21:51:34.371Z,101235.33
2019-05-23T21:54:03.987Z,101236.33
2019-05-23T21:56:32.383Z,101239.66
2019-05-23T21:59:01.069Z,101230.64
2019-05-23T22:01:31.155Z,101228.83
2019-05-23T22:04:17.727Z,101234.34
2019-05-23T22:06:55.623Z,101229.31
2019-05-23T22:09:24.357Z,101232.34
2019-05-23T22:11:53.804Z,101226.66
2019-05-23T22:14:22.224Z,101233.02
2019-05-23T22:16:51.398Z,101224.36
2019-05-23T22:19:26.590Z,101226.02
2019-05-23T22:21:54.475Z,101225.00
2019-05-23T22:24:22.967Z,101219.66
2019-05-23T22:26:51.395Z,101221.49
2019-05-23T22:29:19.907Z,101231.84
2019-05-23T22:31:48.446Z,101232.03
2019-05-23T22:34:27.969Z,101228.00
2019-05-23T22:36:56.673Z,101242.84
2019-05-23T22:39:25.159Z,101239.02
2019-05-23T22:41:53.824Z,101230.48
2019-05-23T22:44:22.216Z,101230.36
2019-05-23T22:46:50.635Z,101231.19
2019-05-23T22:49:19.155Z,101229.02
2019-05-23T22:51:47.675Z,101228.69
2019-05-23T22:54:16.073Z,101224.34
2019-05-23T22:56:46.994Z,101223.17
2019-05-23T22:59:14.620Z,101225.00
2019-05-23T23:01:44.713Z,101218.48
2019-05-23T23:04:15.519Z,101220.99
2019-05-23T23:06:44.025Z,101217.32
2019-05-23T23:09:12.489Z,101222.01
2019-05-23T23:11:40.896Z,101217.66
2019-05-23T23:14:09.294Z,101215.34
2019-05-23T23:16:38.778Z,101211.33
2019-05-23T23:19:08.044Z,101211.00
2019-05-23T23:21:39.150Z,101212.30
2019-05-23T23:24:07.639Z,101211.16
2019-05-23T23:26:36.042Z,101203.45
2019-05-23T23:29:08.580Z,101206.23
2019-05-23T23:31:36.250Z,101207.42
2019-05-23T23:34:04.788Z,101203.22
2019-05-23T23:36:33.205Z,101203.04
2019-05-23T23:39:01.740Z,101201.86
2019-05-23T23:41:31.135Z,101203.88
2019-05-23T23:44:00.165Z,101205.03
2019-05-23T23:46:50.619Z,101203.53
2019-05-23T23:49:37.112Z,101199.36
2019-05-23T23:52:23.314Z,101203.72
2019-05-23T23:55:09.916Z,101203.23
2019-05-23T23:57:56.192Z,101196.89
